createdAt,value
2023-02-24T00:00:34.128Z,149.37
2023-02-24T00:03:06.423Z,175.80
2023-02-24T00:05:37.468Z,158.80
2023-02-24T00:08:07.324Z,171.17
2023-02-24T00:10:37.743Z,157.87
2023-02-24T00:13:06.136Z,137.70
2023-02-24T00:15:35.476Z,140.83
2023-02-24T00:18:07.380Z,148.93
2023-02-24T00:20:35.915Z,145.63
2023-02-24T00:23:04.251Z,135.70
2023-02-24T00:25:33.927Z,153.97
2023-02-24T00:28:02.388Z,160.33
2023-02-24T00:30:33.099Z,120.30
2023-02-24T00:33:04.213Z,131.87
2023-02-24T00:35:33.974Z,137.13
2023-02-24T00:38:02.244Z,124.43
2023-02-24T00:40:30.797Z,139.97
2023-02-24T00:43:00.725Z,141.67
2023-02-24T00:45:31.172Z,124.33
2023-02-24T00:47:59.582Z,121.63
2023-02-24T00:50:27.865Z,108.67
2023-02-24T00:52:56.310Z,107.27
2023-02-24T00:55:24.971Z,102.97
2023-02-24T00:57:53.290Z,88.10
2023-02-24T01:00:24.386Z,72.13
2023-02-24T01:02:52.779Z,76.57
2023-02-24T01:05:21.374Z,54.13
2023-02-24T01:07:49.669Z,60.17
2023-02-24T01:10:18.537Z,58.07
2023-02-24T01:12:49.992Z,47.50
2023-02-24T01:15:21.096Z,42.70
2023-02-24T01:17:50.948Z,40.53
2023-02-24T01:20:19.738Z,37.50
2023-02-24T01:22:50.700Z,37.20
2023-02-24T01:25:20.998Z,33.53
2023-02-24T01:27:49.830Z,29.70
2023-02-24T01:30:19.532Z,29.40
2023-02-24T01:32:48.641Z,29.47
2023-02-24T01:35:18.856Z,34.23
2023-02-24T01:37:47.245Z,31.97
2023-02-24T01:40:18.844Z,24.67
2023-02-24T01:42:50.613Z,26.60
2023-02-24T01:45:25.183Z,37.03
2023-02-24T01:47:55.893Z,30.10
2023-02-24T01:50:28.004Z,25.87
2023-02-24T01:53:01.960Z,34.33
2023-02-24T01:55:34.495Z,29.67
2023-02-24T01:58:08.115Z,30.67
2023-02-24T02:00:45.478Z,32.87
2023-02-24T02:03:25.537Z,27.47
2023-02-24T02:06:01.166Z,24.90
2023-02-24T02:08:30.730Z,27.60
2023-02-24T02:11:04.258Z,17.03
2023-02-24T02:13:36.042Z,16.83
2023-02-24T02:16:38.790Z,22.83
2023-02-24T02:19:31.935Z,16.77
2023-02-24T02:22:08.809Z,21.23
2023-02-24T02:24:51.345Z,24.77
2023-02-24T02:28:07.748Z,20.47
2023-02-24T02:31:02.140Z,27.70
2023-02-24T02:34:17.182Z,19.43
2023-02-24T02:36:57.332Z,28.37
2023-02-24T02:39:34.109Z,24.40
2023-02-24T02:42:15.230Z,22.63
2023-02-24T02:44:55.965Z,22.03
2023-02-24T02:47:33.047Z,18.07
2023-02-24T02:50:11.387Z,20.53
2023-02-24T02:52:44.192Z,21.50
2023-02-24T02:55:15.492Z,22.23
2023-02-24T02:57:47.662Z,15.37
2023-02-24T03:00:23.308Z,21.00
2023-02-24T03:02:56.564Z,21.87
2023-02-24T03:05:31.088Z,26.00
2023-02-24T03:08:04.813Z,18.23
2023-02-24T03:10:35.089Z,16.00
2023-02-24T03:13:07.348Z,18.40
2023-02-24T03:15:42.163Z,20.00
2023-02-24T03:18:18.482Z,21.67
2023-02-24T03:20:52.792Z,14.23
2023-02-24T03:23:26.062Z,19.13
2023-02-24T03:25:59.143Z,15.47
2023-02-24T03:28:36.004Z,18.33
2023-02-24T03:31:11.285Z,19.37
2023-02-24T03:33:44.748Z,18.83
2023-02-24T03:36:15.245Z,21.23
2023-02-24T03:38:49.765Z,20.63
2023-02-24T03:41:19.105Z,14.00
2023-02-24T03:43:51.583Z,15.97
2023-02-24T03:46:20.233Z,11.13
2023-02-24T03:48:52.915Z,15.93
2023-02-24T03:51:24.398Z,15.70
2023-02-24T03:54:05.768Z,19.87
2023-02-24T03:56:46.998Z,19.03
2023-02-24T03:59:25.334Z,17.97
2023-02-24T04:01:58.176Z,13.63
2023-02-24T04:04:34.127Z,17.70
2023-02-24T04:07:11.132Z,11.37
2023-02-24T04:09:44.222Z,15.00
2023-02-24T04:12:19.975Z,21.00
2023-02-24T04:14:51.832Z,15.77
2023-02-24T04:17:24.313Z,12.90
2023-02-24T04:19:55.930Z,15.47
2023-02-24T04:22:28.018Z,28.23
2023-02-24T04:25:01.575Z,11.77
2023-02-24T04:27:30.351Z,16.20
2023-02-24T04:30:01.175Z,16.77
2023-02-24T04:32:31.562Z,19.87
2023-02-24T04:35:06.605Z,16.00
2023-02-24T04:37:38.792Z,11.37
2023-02-24T04:40:12.475Z,16.30
2023-02-24T04:42:46.717Z,17.47
2023-02-24T04:45:16.610Z,16.33
2023-02-24T04:47:49.515Z,21.40
2023-02-24T04:50:23.268Z,12.00
2023-02-24T04:52:54.866Z,12.33
2023-02-24T04:55:26.549Z,16.93
2023-02-24T04:57:55.217Z,14.33
2023-02-24T05:00:26.764Z,13.47
2023-02-24T05:02:57.415Z,17.30
2023-02-24T05:05:27.732Z,15.73
2023-02-24T05:08:02.964Z,13.00
2023-02-24T05:10:33.347Z,14.27
2023-02-24T05:13:02.573Z,18.70
2023-02-24T05:15:32.156Z,11.43
2023-02-24T05:18:01.013Z,18.63
2023-02-24T05:20:46.907Z,20.57
2023-02-24T05:23:17.191Z,8.23
2023-02-24T05:25:46.060Z,18.80
2023-02-24T05:28:14.074Z,11.70
2023-02-24T05:30:42.139Z,11.33
2023-02-24T05:33:10.646Z,11.17
2023-02-24T05:35:38.805Z,9.93
2023-02-24T05:38:08.241Z,8.40
2023-02-24T05:40:45.576Z,7.13
2023-02-24T05:43:18.094Z,9.27
2023-02-24T05:45:46.563Z,8.43
2023-02-24T05:48:15.639Z,7.00
2023-02-24T05:50:46.223Z,14.43
2023-02-24T05:53:14.344Z,9.90
2023-02-24T05:55:45.084Z,9.83
2023-02-24T05:58:13.276Z,6.70
2023-02-24T06:00:46.115Z,7.70
2023-02-24T06:03:17.608Z,9.13
2023-02-24T06:05:53.523Z,7.97
2023-02-24T06:08:24.361Z,6.40
2023-02-24T06:10:54.051Z,7.23
2023-02-24T06:13:22.146Z,5.07
2023-02-24T06:15:55.712Z,6.03
2023-02-24T06:18:23.952Z,7.63
2023-02-24T06:20:52.060Z,8.37
2023-02-24T06:23:20.371Z,11.60
2023-02-24T06:25:48.622Z,9.93
2023-02-24T06:28:19.951Z,7.60
2023-02-24T06:30:48.170Z,7.30
2023-02-24T06:33:16.339Z,12.57
2023-02-24T06:35:44.449Z,6.63
2023-02-24T06:38:12.573Z,10.43
2023-02-24T06:40:40.671Z,7.33
2023-02-24T06:43:10.922Z,10.37
2023-02-24T06:45:41.104Z,8.00
2023-02-24T06:48:09.538Z,7.13
2023-02-24T06:50:38.736Z,6.00
2023-02-24T06:53:16.818Z,7.47
2023-02-24T06:55:46.597Z,6.20
2023-02-24T06:58:18.179Z,8.20
2023-02-24T07:00:56.803Z,4.20
2023-02-24T07:03:39.217Z,9.77
2023-02-24T07:06:25.775Z,7.10
2023-02-24T07:08:54.662Z,3.53
2023-02-24T07:11:23.397Z,10.27
2023-02-24T07:13:54.547Z,7.10
2023-02-24T07:16:25.395Z,8.80
2023-02-24T07:18:56.619Z,5.83
2023-02-24T07:21:26.285Z,6.47
2023-02-24T07:23:58.945Z,6.10
2023-02-24T07:26:30.358Z,6.20
2023-02-24T07:28:58.426Z,3.10
2023-02-24T07:31:27.976Z,3.77
2023-02-24T07:33:57.740Z,8.30
2023-02-24T07:36:30.126Z,5.70
2023-02-24T07:38:59.965Z,5.20
2023-02-24T07:41:30.431Z,10.50
2023-02-24T07:44:03.196Z,9.23
2023-02-24T07:46:33.421Z,8.93
2023-02-24T07:49:03.253Z,9.57
2023-02-24T07:51:31.510Z,8.07
2023-02-24T07:54:01.396Z,9.27
2023-02-24T07:56:31.294Z,6.00
2023-02-24T07:59:01.108Z,6.50
2023-02-24T08:01:30.468Z,7.23
2023-02-24T08:04:01.481Z,6.10
2023-02-24T08:06:37.868Z,6.30
2023-02-24T08:09:17.512Z,10.87
2023-02-24T08:11:47.125Z,5.43
2023-02-24T08:14:16.484Z,6.53
2023-02-24T08:16:48.713Z,6.77
2023-02-24T08:19:21.302Z,7.80
2023-02-24T08:21:51.350Z,3.03
2023-02-24T08:24:25.375Z,8.10
2023-02-24T08:27:04.348Z,9.00
2023-02-24T08:29:40.116Z,5.60
2023-02-24T08:32:09.473Z,8.17
2023-02-24T08:34:39.532Z,6.67
2023-02-24T08:37:07.654Z,8.73
2023-02-24T08:39:36.515Z,5.03
2023-02-24T08:42:04.913Z,3.93
2023-02-24T08:44:35.038Z,9.60
2023-02-24T08:47:05.383Z,5.43
2023-02-24T08:49:33.790Z,6.27
2023-02-24T08:52:07.250Z,5.67
2023-02-24T08:54:48.039Z,12.40
2023-02-24T08:57:18.348Z,7.73
2023-02-24T08:59:50.025Z,8.67
2023-02-24T09:02:24.233Z,2.87
2023-02-24T09:04:54.763Z,8.80
2023-02-24T09:07:26.323Z,8.20
2023-02-24T09:09:56.576Z,9.00
2023-02-24T09:12:26.432Z,6.97
2023-02-24T09:14:56.562Z,4.87
2023-02-24T09:17:46.165Z,7.27
2023-02-24T09:20:34.465Z,5.67
2023-02-24T09:23:05.825Z,4.10
2023-02-24T09:25:41.471Z,6.40
2023-02-24T09:28:17.085Z,9.43
2023-02-24T09:30:54.477Z,3.90
2023-02-24T09:33:25.910Z,10.33
2023-02-24T09:36:03.244Z,6.77
2023-02-24T09:38:50.306Z,5.70
2023-02-24T09:41:32.058Z,5.43
2023-02-24T09:44:18.125Z,4.17
2023-02-24T09:46:54.812Z,10.00
2023-02-24T09:49:28.526Z,7.63
2023-02-24T09:52:08.946Z,6.60
2023-02-24T09:54:38.686Z,7.03
2023-02-24T09:57:16.967Z,5.83
2023-02-24T10:00:01.194Z,9.07
2023-02-24T10:02:44.288Z,3.87
2023-02-24T10:05:23.224Z,4.70
2023-02-24T10:07:53.263Z,5.67
2023-02-24T10:10:29.071Z,4.17
2023-02-24T10:13:13.115Z,7.60
2023-02-24T10:15:59.602Z,3.70
2023-02-24T10:18:33.755Z,7.23
2023-02-24T10:21:15.644Z,4.73
2023-02-24T10:23:59.631Z,7.43
2023-02-24T10:26:51.339Z,5.97
2023-02-24T10:29:39.297Z,6.03
2023-02-24T10:32:23.837Z,4.10
2023-02-24T10:34:52.479Z,9.33
2023-02-24T10:37:28.625Z,5.80
2023-02-24T10:39:59.819Z,4.83
2023-02-24T10:42:32.723Z,4.93
2023-02-24T10:45:20.057Z,4.37
2023-02-24T10:47:56.812Z,3.77
2023-02-24T10:50:29.801Z,5.53
2023-02-24T10:53:26.595Z,6.27
2023-02-24T10:56:15.336Z,4.20
2023-02-24T10:58:49.667Z,4.70
2023-02-24T11:01:21.741Z,7.23
2023-02-24T11:04:02.133Z,5.40
2023-02-24T11:06:52.603Z,3.53
2023-02-24T11:09:35.207Z,6.27
2023-02-24T11:12:25.914Z,6.70
2023-02-24T11:15:15.897Z,5.63
2023-02-24T11:17:50.885Z,5.30
2023-02-24T11:20:42.480Z,7.17
2023-02-24T11:23:18.654Z,6.67
2023-02-24T11:25:49.788Z,10.03
2023-02-24T11:28:32.564Z,5.63
2023-02-24T11:31:12.051Z,7.23
2023-02-24T11:33:47.903Z,8.57
2023-02-24T11:36:25.994Z,5.03
2023-02-24T11:39:17.256Z,4.77
2023-02-24T11:41:54.001Z,7.07
2023-02-24T11:44:29.132Z,4.80
2023-02-24T11:47:07.316Z,7.00
2023-02-24T11:49:42.341Z,4.37
2023-02-24T11:52:17.251Z,7.20
2023-02-24T11:54:51.396Z,9.80
2023-02-24T11:57:25.032Z,4.60
2023-02-24T12:00:04.402Z,5.43
2023-02-24T12:02:40.573Z,3.67
2023-02-24T12:05:14.894Z,8.83
2023-02-24T12:07:46.840Z,6.30
2023-02-24T12:10:21.302Z,5.03
2023-02-24T12:12:58.178Z,10.43
2023-02-24T12:15:30.781Z,9.53
2023-02-24T12:18:11.759Z,9.13
2023-02-24T12:20:49.088Z,5.00
2023-02-24T12:23:23.209Z,9.17
2023-02-24T12:26:04.916Z,4.07
2023-02-24T12:28:46.713Z,11.30
2023-02-24T12:31:25.525Z,6.93
2023-02-24T12:34:04.401Z,8.53
2023-02-24T12:36:46.730Z,8.37
2023-02-24T12:39:18.202Z,3.10
2023-02-24T12:42:02.430Z,7.60
2023-02-24T12:44:45.874Z,2.73
2023-02-24T12:47:17.190Z,6.67
2023-02-24T12:50:11.959Z,6.93
2023-02-24T12:52:52.692Z,6.00
2023-02-24T12:55:26.590Z,11.23
2023-02-24T12:58:05.001Z,11.53
2023-02-24T13:00:41.921Z,7.27
2023-02-24T13:03:25.287Z,4.67
2023-02-24T13:06:06.175Z,7.63
2023-02-24T13:08:45.442Z,8.37
2023-02-24T13:11:25.760Z,5.20
2023-02-24T13:14:00.141Z,10.90
2023-02-24T13:16:33.339Z,12.33
2023-02-24T13:19:18.778Z,8.80
2023-02-24T13:21:59.988Z,7.60
2023-02-24T13:24:28.242Z,5.50
2023-02-24T13:27:07.372Z,8.03
2023-02-24T13:29:46.141Z,7.73
2023-02-24T13:32:30.175Z,8.40
2023-02-24T13:35:01.237Z,4.57
2023-02-24T13:37:34.434Z,9.40
2023-02-24T13:40:16.477Z,4.13
2023-02-24T13:42:45.950Z,6.13
2023-02-24T13:45:22.029Z,8.60
2023-02-24T13:48:29.279Z,7.97
2023-02-24T13:51:26.673Z,6.80
2023-02-24T13:54:10.682Z,7.33
2023-02-24T13:56:44.719Z,4.67
2023-02-24T13:59:25.227Z,6.20
2023-02-24T14:02:00.435Z,10.37
2023-02-24T14:04:31.444Z,9.37
2023-02-24T14:07:03.515Z,6.43
2023-02-24T14:09:36.274Z,7.87
2023-02-24T14:12:12.988Z,9.87
2023-02-24T14:14:41.543Z,6.60
2023-02-24T14:17:24.419Z,7.63
2023-02-24T14:19:52.575Z,6.63
2023-02-24T14:22:22.274Z,7.20
2023-02-24T14:25:02.793Z,7.10
2023-02-24T14:27:31.230Z,7.83
2023-02-24T14:30:00.301Z,10.13
2023-02-24T14:32:29.643Z,4.83
2023-02-24T14:34:58.108Z,8.47
2023-02-24T14:37:29.389Z,11.37
2023-02-24T14:40:05.598Z,6.93
2023-02-24T14:42:33.738Z,7.97
2023-02-24T14:45:02.409Z,6.70
2023-02-24T14:47:32.615Z,6.33
2023-02-24T14:50:03.374Z,9.07
2023-02-24T14:52:40.802Z,6.27
2023-02-24T14:55:15.802Z,8.97
2023-02-24T14:57:48.517Z,5.17
2023-02-24T15:00:23.969Z,7.07
2023-02-24T15:02:56.763Z,3.73
2023-02-24T15:05:25.305Z,6.23
2023-02-24T15:07:53.462Z,6.23
2023-02-24T15:10:25.996Z,6.20
2023-02-24T15:12:57.110Z,8.67
2023-02-24T15:15:28.785Z,6.20
2023-02-24T15:17:59.196Z,4.57
2023-02-24T15:20:33.516Z,6.40
2023-02-24T15:23:02.019Z,4.53
2023-02-24T15:25:43.533Z,8.60
2023-02-24T15:28:25.591Z,5.63
2023-02-24T15:31:03.187Z,6.70
2023-02-24T15:33:36.180Z,4.50
2023-02-24T15:36:11.529Z,4.97
2023-02-24T15:38:43.278Z,7.17
2023-02-24T15:41:14.295Z,6.57
2023-02-24T15:43:49.170Z,4.63
2023-02-24T15:46:29.933Z,6.37
2023-02-24T15:49:02.910Z,5.00
2023-02-24T15:51:36.329Z,4.23
2023-02-24T15:54:06.698Z,6.80
2023-02-24T15:56:37.530Z,5.13
2023-02-24T15:59:06.114Z,4.67
2023-02-24T16:01:35.201Z,7.63
2023-02-24T16:04:04.745Z,26.43
2023-02-24T16:06:33.989Z,15.80
2023-02-24T16:09:05.196Z,9.17
2023-02-24T16:11:39.753Z,7.10
2023-02-24T16:14:10.558Z,8.50
2023-02-24T16:16:39.036Z,8.10
2023-02-24T16:19:07.361Z,6.83
2023-02-24T16:21:36.373Z,8.43
2023-02-24T16:24:04.810Z,10.07
2023-02-24T16:26:39.019Z,12.53
2023-02-24T16:29:11.700Z,10.00
2023-02-24T16:31:41.288Z,12.30
2023-02-24T16:34:10.134Z,9.67
2023-02-24T16:36:38.505Z,12.23
2023-02-24T16:39:06.779Z,13.73
2023-02-24T16:41:35.369Z,12.77
2023-02-24T16:44:05.078Z,14.23
2023-02-24T16:46:37.684Z,12.97
2023-02-24T16:49:09.238Z,16.53
2023-02-24T16:51:39.131Z,17.37
2023-02-24T16:54:08.412Z,16.83
2023-02-24T16:56:36.794Z,15.27
2023-02-24T16:59:06.589Z,16.17
2023-02-24T17:01:35.033Z,19.23
2023-02-24T17:04:05.371Z,24.97
2023-02-24T17:06:33.847Z,18.47
2023-02-24T17:09:02.541Z,16.60
2023-02-24T17:11:31.031Z,20.37
2023-02-24T17:13:59.803Z,18.73
2023-02-24T17:16:29.673Z,22.10
2023-02-24T17:18:58.174Z,21.20
2023-02-24T17:21:26.677Z,21.77
2023-02-24T17:23:55.058Z,22.97
2023-02-24T17:26:23.877Z,25.03
2023-02-24T17:28:52.505Z,22.93
2023-02-24T17:31:20.974Z,24.77
2023-02-24T17:33:50.786Z,24.27
2023-02-24T17:36:19.611Z,19.20
2023-02-24T17:38:48.165Z,23.67
2023-02-24T17:41:16.463Z,24.73
2023-02-24T17:43:44.844Z,25.70
2023-02-24T17:46:13.525Z,24.20
2023-02-24T17:48:41.912Z,26.17
2023-02-24T17:51:14.772Z,28.37
2023-02-24T17:53:43.660Z,30.03
2023-02-24T17:56:12.541Z,27.40
2023-02-24T17:58:41.381Z,32.60
2023-02-24T18:01:09.783Z,35.50
2023-02-24T18:03:38.303Z,30.63
2023-02-24T18:06:09.399Z,30.77
2023-02-24T18:08:40.684Z,37.97
2023-02-24T18:11:12.864Z,37.93
2023-02-24T18:13:41.227Z,31.57
2023-02-24T18:16:11.907Z,33.43
2023-02-24T18:18:42.770Z,35.87
2023-02-24T18:21:11.191Z,28.90
2023-02-24T18:23:41.317Z,36.03
2023-02-24T18:26:12.463Z,36.43
2023-02-24T18:28:40.996Z,29.77
2023-02-24T18:31:14.866Z,36.33
2023-02-24T18:33:44.634Z,32.70
2023-02-24T18:36:13.514Z,40.27
2023-02-24T18:38:43.229Z,35.17
2023-02-24T18:41:14.267Z,44.57
2023-02-24T18:43:43.400Z,40.77
2023-02-24T18:46:14.320Z,39.87
2023-02-24T18:48:44.538Z,39.93
2023-02-24T18:51:14.186Z,43.10
2023-02-24T18:53:44.406Z,38.73
2023-02-24T18:56:16.911Z,40.23
2023-02-24T18:58:45.733Z,46.67
2023-02-24T19:01:16.245Z,52.70
2023-02-24T19:03:45.405Z,60.77
2023-02-24T19:06:14.540Z,43.97
2023-02-24T19:08:44.864Z,40.23
2023-02-24T19:11:15.728Z,42.23
2023-02-24T19:13:44.898Z,39.73
2023-02-24T19:16:13.297Z,35.63
2023-02-24T19:18:41.817Z,44.70
2023-02-24T19:21:11.305Z,34.93
2023-02-24T19:23:39.880Z,41.47
2023-02-24T19:26:20.283Z,40.70
2023-02-24T19:28:49.556Z,37.37
2023-02-24T19:31:20.868Z,37.70
2023-02-24T19:33:54.646Z,39.00
2023-02-24T19:36:23.801Z,40.83
2023-02-24T19:38:52.634Z,36.00
2023-02-24T19:41:22.807Z,45.53
2023-02-24T19:43:51.148Z,39.60
2023-02-24T19:46:20.052Z,48.63
2023-02-24T19:48:48.818Z,46.23
2023-02-24T19:51:19.095Z,47.43
2023-02-24T19:53:48.060Z,43.23
2023-02-24T19:56:16.351Z,43.30
2023-02-24T19:58:47.907Z,44.80
2023-02-24T20:01:16.330Z,40.93
2023-02-24T20:03:44.741Z,44.57
2023-02-24T20:06:19.478Z,40.77
2023-02-24T20:08:47.989Z,45.83
2023-02-24T20:11:16.272Z,39.03
2023-02-24T20:13:45.942Z,49.47
2023-02-24T20:16:17.024Z,44.80
2023-02-24T20:18:45.874Z,47.93
2023-02-24T20:21:15.140Z,50.67
2023-02-24T20:23:44.077Z,43.97
2023-02-24T20:26:16.214Z,51.83
2023-02-24T20:28:46.920Z,53.80
2023-02-24T20:31:18.689Z,54.50
2023-02-24T20:33:48.847Z,61.70
2023-02-24T20:36:20.091Z,62.63
2023-02-24T20:38:49.237Z,56.63
2023-02-24T20:41:18.012Z,65.43
2023-02-24T20:43:47.917Z,65.73
2023-02-24T20:46:18.981Z,49.07
2023-02-24T20:48:47.673Z,51.97
2023-02-24T20:51:16.003Z,56.97
2023-02-24T20:53:56.656Z,50.93
2023-02-24T20:56:27.170Z,59.53
2023-02-24T20:59:00.788Z,54.43
2023-02-24T21:01:29.823Z,52.77
2023-02-24T21:03:58.662Z,61.60
2023-02-24T21:06:28.057Z,65.93
2023-02-24T21:08:56.918Z,53.43
2023-02-24T21:11:25.566Z,70.37
2023-02-24T21:13:54.027Z,63.17
2023-02-24T21:16:25.195Z,67.10
2023-02-24T21:18:54.140Z,61.20
2023-02-24T21:21:22.600Z,66.83
2023-02-24T21:23:52.170Z,67.27
2023-02-24T21:26:21.592Z,65.37
2023-02-24T21:29:00.513Z,61.00
2023-02-24T21:31:31.723Z,75.20
2023-02-24T21:34:00.978Z,74.50
2023-02-24T21:36:29.704Z,73.37
2023-02-24T21:38:58.823Z,61.43
2023-02-24T21:41:28.312Z,61.30
2023-02-24T21:43:57.400Z,54.93
2023-02-24T21:46:28.697Z,67.63
2023-02-24T21:49:00.217Z,62.33
2023-02-24T21:51:32.636Z,64.93
2023-02-24T21:54:01.798Z,64.20
2023-02-24T21:56:30.895Z,63.13
2023-02-24T21:59:01.482Z,66.50
2023-02-24T22:01:31.777Z,61.87
2023-02-24T22:04:03.507Z,71.67
2023-02-24T22:06:34.509Z,55.43
2023-02-24T22:09:04.898Z,58.23
2023-02-24T22:11:35.944Z,64.03
2023-02-24T22:14:04.765Z,55.57
2023-02-24T22:16:33.399Z,59.20
2023-02-24T22:19:03.024Z,49.73
2023-02-24T22:21:31.984Z,48.90
2023-02-24T22:24:02.458Z,54.03
2023-02-24T22:26:32.146Z,54.07
2023-02-24T22:29:01.015Z,42.73
2023-02-24T22:31:31.814Z,52.13
2023-02-24T22:34:00.677Z,40.97
2023-02-24T22:36:33.318Z,51.57
2023-02-24T22:39:02.546Z,53.07
2023-02-24T22:41:32.994Z,42.83
2023-02-24T22:44:02.042Z,48.87
2023-02-24T22:46:32.566Z,37.37
2023-02-24T22:49:01.215Z,47.30
2023-02-24T22:51:31.126Z,37.53
2023-02-24T22:53:59.251Z,45.47
2023-02-24T22:56:29.965Z,39.43
2023-02-24T22:58:58.711Z,34.63
2023-02-24T23:01:29.440Z,32.57
2023-02-24T23:04:00.715Z,35.00
2023-02-24T23:06:31.016Z,33.23
2023-02-24T23:09:00.902Z,26.20
2023-02-24T23:11:30.746Z,29.70
2023-02-24T23:14:00.750Z,22.00
2023-02-24T23:16:32.281Z,37.40
2023-02-24T23:19:04.255Z,19.57
2023-02-24T23:21:38.014Z,21.53
2023-02-24T23:24:07.837Z,24.37
2023-02-24T23:26:38.775Z,45.67
2023-02-24T23:29:07.697Z,30.23
2023-02-24T23:31:35.882Z,26.87
2023-02-24T23:34:06.524Z,29.07
2023-02-24T23:36:36.930Z,21.83
2023-02-24T23:39:05.929Z,28.33
2023-02-24T23:41:35.352Z,21.43
2023-02-24T23:44:03.710Z,31.60
2023-02-24T23:46:33.657Z,19.30
2023-02-24T23:49:01.810Z,21.80
2023-02-24T23:51:45.740Z,27.10
2023-02-24T23:54:18.528Z,20.83
2023-02-24T23:56:47.062Z,24.50
2023-02-24T23:59:15.618Z,21.77
